| time (UTC) | temp F | wind direction | speed MPH | gust MPH | rain 1hr in | rain 24hr in | rain mn in | humidity % | barometer mb |
| 20260507165514 | 57 | 41 | 14.0 | 20.0 | 0.00 | 0.00 | 0.00 | 91 | 1015.8 |
| 20260507165014 | 57 | 49 | 13.0 | 21.0 | 0.00 | 0.00 | 0.00 | 92 | 1015.5 |
| 20260507164518 | 57 | 46 | 16.0 | 21.0 | 0.00 | 0.00 | 0.00 | 92 | 1015.4 |
| 20260507164016 | 56 | 66 | 15.0 | 20.0 | 0.00 | 0.00 | 0.00 | 92 | 1015.7 |
| 20260507163513 | 57 | 60 | 14.0 | 21.0 | 0.00 | 0.00 | 0.00 | 92 | 1015.7 |
| 20260507163012 | 56 | 41 | 15.0 | 21.0 | 0.00 | 0.00 | 0.00 | 92 | 1015.8 |
| 20260507162513 | 57 | 56 | 16.0 | 21.0 | 0.00 | 0.00 | 0.00 | 92 | 1016.1 |
| 20260507162012 | 56 | 57 | 12.0 | 24.0 | 0.00 | 0.00 | 0.00 | 93 | 1016.1 |
| 20260507161512 | 57 | 42 | 18.0 | 24.0 | 0.00 | 0.00 | 0.00 | 92 | 1015.7 |
| 20260507161011 | 57 | 55 | 15.0 | 22.0 | 0.00 | 0.00 | 0.00 | 91 | 1015.7 |
| 20260507160511 | 57 | 40 | 15.0 | 24.0 | 0.00 | 0.00 | 0.00 | 91 | 1015.7 |
| 20260507160011 | 57 | 48 | 14.0 | 24.0 | 0.00 | 0.00 | 0.00 | 91 | 1015.9 |
| 20260507155510 | 57 | 42 | 16.0 | 24.0 | 0.00 | 0.03 | 0.00 | 90 | 1015.8 |
| 20260507155009 | 58 | 47 | 16.0 | 25.0 | 0.00 | 0.03 | 0.00 | 90 | 1015.5 |
| 20260507154508 | 58 | 61 | 17.0 | 25.0 | 0.00 | 0.03 | 0.00 | 92 | 1015.4 |
| 20260507154010 | 57 | 72 | 16.0 | 25.0 | 0.00 | 0.03 | 0.00 | 92 | 1015.6 |
| 20260507153507 | 57 | 54 | 16.0 | 27.0 | 0.00 | 0.03 | 0.00 | 93 | 1015.5 |
| 20260507153007 | 56 | 56 | 15.0 | 28.0 | 0.00 | 0.03 | 0.00 | 93 | 1015.6 |
| 20260507152507 | 56 | 47 | 20.0 | 28.0 | 0.00 | 0.03 | 0.00 | 94 | 1015.2 |
| 20260507152007 | 56 | 63 | 18.0 | 29.0 | 0.00 | 0.03 | 0.00 | 94 | 1015.3 |
| 20260507151507 | 56 | 40 | 18.0 | 26.0 | 0.00 | 0.03 | 0.00 | 95 | 1015.0 |
| 20260507151006 | 55 | 51 | 19.0 | 29.0 | 0.00 | 0.03 | 0.00 | 95 | 1015.0 |
| 20260507150506 | 55 | 57 | 18.0 | 28.0 | 0.00 | 0.03 | 0.00 | 95 | 1014.9 |
| 20260507150010 | 55 | 44 | 19.0 | 26.0 | 0.00 | 0.03 | 0.00 | 95 | 1015.1 |
| 20260507145506 | 55 | 33 | 13.0 | 27.0 | 0.00 | 0.04 | 0.00 | 96 | 1015.2 |
| 20260507145005 | 55 | 71 | 18.0 | 29.0 | 0.00 | 0.04 | 0.00 | 95 | 1015.1 |
| 20260507144505 | 55 | 43 | 23.0 | 29.0 | 0.00 | 0.04 | 0.00 | 96 | 1015.1 |
| 20260507144005 | 55 | 53 | 18.0 | 25.0 | 0.00 | 0.04 | 0.00 | 96 | 1015.4 |
| 20260507143508 | 55 | 48 | 18.0 | 25.0 | 0.00 | 0.04 | 0.00 | 96 | 1015.4 |
| 20260507143005 | 55 | 58 | 17.0 | 25.0 | 0.00 | 0.04 | 0.00 | 96 | 1015.2 |
| 20260507142504 | 55 | 37 | 18.0 | 25.0 | 0.00 | 0.04 | 0.00 | 97 | 1015.0 |
| 20260507142006 | 55 | 61 | 15.0 | 24.0 | 0.00 | 0.04 | 0.00 | 98 | 1015.1 |
| 20260507141504 | 55 | 38 | 18.0 | 24.0 | 0.00 | 0.04 | 0.00 | 97 | 1015.1 |
| 20260507141007 | 55 | 38 | 17.0 | 23.0 | 0.00 | 0.04 | 0.00 | 97 | 1015.3 |
| 20260507140504 | 55 | 19 | 15.0 | 24.0 | 0.00 | 0.04 | 0.00 | 97 | 1015.5 |
| 20260507140003 | 55 | 53 | 17.0 | 24.0 | 0.00 | 0.04 | 0.00 | 97 | 1015.7 |
| 20260507135502 | 55 | 78 | 15.0 | 21.0 | 0.00 | 0.05 | 0.00 | 97 | 1015.7 |
| 20260507135002 | 55 | 63 | 13.0 | 21.0 | 0.00 | 0.05 | 0.00 | 97 | 1015.5 |
| 20260507134501 | 55 | 56 | 16.0 | 21.0 | 0.00 | 0.05 | 0.00 | 97 | 1015.3 |
| 20260507134001 | 55 | 82 | 15.0 | 25.0 | 0.00 | 0.05 | 0.00 | 97 | 1015.2 |
| 20260507133600 | 55 | 62 | 17.0 | 26.0 | 0.00 | 0.05 | 0.00 | 96 | 1014.9 |
| 20260507133100 | 55 | 35 | 15.0 | 26.0 | 0.00 | 0.05 | 0.00 | 96 | 1014.7 |
| 20260507132559 | 55 | 54 | 20.0 | 26.0 | 0.00 | 0.05 | 0.00 | 96 | 1014.1 |
| 20260507132059 | 55 | 49 | 17.0 | 27.0 | 0.00 | 0.05 | 0.00 | 96 | 1014.0 |
| 20260507131604 | 55 | 30 | 21.0 | 27.0 | 0.00 | 0.05 | 0.00 | 96 | 1014.0 |
| 20260507131054 | 56 | 42 | 16.0 | 25.0 | 0.00 | 0.05 | 0.00 | 96 | 1014.8 |
| 20260507130551 | 56 | 40 | 14.0 | 21.0 | 0.00 | 0.05 | 0.00 | 95 | 1015.3 |
| 20260507125554 | 56 | 45 | 19.0 | 27.0 | 0.00 | 0.05 | 0.00 | 95 | 1014.8 |
| 20260507125049 | 56 | 44 | 16.0 | 23.0 | 0.00 | 0.05 | 0.00 | 95 | 1014.9 |
| 20260507124603 | 56 | 37 | 17.0 | 23.0 | 0.00 | 0.05 | 0.00 | 95 | 1014.9 |
| 20260507124047 | 57 | 73 | 18.0 | 23.0 | 0.00 | 0.05 | 0.00 | 94 | 1014.7 |
| 20260507123545 | 57 | 37 | 15.0 | 21.0 | 0.00 | 0.05 | 0.00 | 94 | 1014.7 |
| 20260507123055 | 57 | 57 | 14.0 | 23.0 | 0.00 | 0.05 | 0.00 | 94 | 1014.7 |
| 20260507122543 | 57 | 68 | 15.0 | 23.0 | 0.00 | 0.05 | 0.00 | 94 | 1014.6 |
| 20260507122042 | 57 | 62 | 13.0 | 21.0 | 0.00 | 0.05 | 0.00 | 94 | 1014.5 |
| 20260507121547 | 57 | 50 | 14.0 | 21.0 | 0.00 | 0.05 | 0.00 | 94 | 1014.4 |
| 20260507121041 | 57 | 46 | 13.0 | 23.0 | 0.00 | 0.05 | 0.00 | 94 | 1014.3 |
| 20260507120539 | 57 | 32 | 16.0 | 23.0 | 0.00 | 0.05 | 0.00 | 94 | 1014.0 |
| 20260507120040 | 57 | 46 | 15.0 | 21.0 | 0.00 | 0.05 | 0.00 | 94 | 1014.1 |
| 20260507115538 | 57 | 60 | 16.0 | 21.0 | 0.00 | 0.05 | 0.00 | 94 | 1013.8 |
| 20260507115037 | 57 | 64 | 14.0 | 19.0 | 0.00 | 0.05 | 0.00 | 94 | 1013.8 |
| 20260507114540 | 58 | 57 | 11.0 | 19.0 | 0.00 | 0.05 | 0.00 | 94 | 1013.7 |
| 20260507114038 | 57 | 54 | 14.0 | 21.0 | 0.00 | 0.05 | 0.00 | 94 | 1013.7 |
| 20260507113533 | 58 | 40 | 16.0 | 21.0 | 0.00 | 0.05 | 0.00 | 94 | 1013.5 |
| 20260507113035 | 58 | 42 | 12.0 | 18.0 | 0.00 | 0.05 | 0.00 | 94 | 1013.7 |
| 20260507112532 | 58 | 44 | 12.0 | 19.0 | 0.00 | 0.05 | 0.00 | 94 | 1013.7 |
| 20260507112031 | 58 | 53 | 15.0 | 19.0 | 0.00 | 0.05 | 0.00 | 94 | 1013.6 |
| 20260507111532 | 58 | 31 | 13.0 | 18.0 | 0.00 | 0.05 | 0.00 | 94 | 1013.7 |
| 20260507111030 | 58 | 34 | 13.0 | 17.0 | 0.00 | 0.05 | 0.00 | 94 | 1013.7 |
| 20260507110530 | 58 | 54 | 12.0 | 18.0 | 0.00 | 0.05 | 0.00 | 94 | 1013.5 |
| 20260507110030 | 58 | 57 | 14.0 | 23.0 | 0.00 | 0.05 | 0.00 | 94 | 1013.5 |
| 20260507105528 | 58 | 42 | 17.0 | 23.0 | 0.00 | 0.05 | 0.00 | 94 | 1013.4 |
| 20260507105028 | 58 | 53 | 13.0 | 22.0 | 0.00 | 0.05 | 0.00 | 94 | 1013.3 |
| 20260507104528 | 59 | 49 | 15.0 | 20.0 | 0.00 | 0.05 | 0.00 | 94 | 1013.3 |
| 20260507104028 | 59 | 46 | 15.0 | 20.0 | 0.00 | 0.05 | 0.00 | 94 | 1013.3 |
| 20260507103527 | 59 | 50 | 11.0 | 17.0 | 0.00 | 0.05 | 0.00 | 95 | 1013.3 |
| 20260507103025 | 59 | 55 | 12.0 | 16.0 | 0.00 | 0.05 | 0.00 | 95 | 1013.4 |
| 20260507102525 | 59 | 52 | 13.0 | 20.0 | 0.00 | 0.05 | 0.00 | 95 | 1013.1 |
| 20260507102025 | 59 | 65 | 14.0 | 20.0 | 0.00 | 0.05 | 0.00 | 95 | 1012.7 |
| 20260507101533 | 59 | 57 | 14.0 | 19.0 | 0.00 | 0.05 | 0.00 | 95 | 1012.9 |
| 20260507101024 | 59 | 50 | 12.0 | 18.0 | 0.00 | 0.05 | 0.00 | 95 | 1012.9 |
| 20260507100524 | 59 | 60 | 12.0 | 18.0 | 0.00 | 0.05 | 0.00 | 95 | 1013.0 |
| 20260507100031 | 59 | 60 | 12.0 | 17.0 | 0.00 | 0.05 | 0.00 | 95 | 1012.9 |
| 20260507095524 | 59 | 39 | 12.0 | 20.0 | 0.00 | 0.05 | 0.00 | 95 | 1012.8 |
| 20260507095023 | 59 | 47 | 14.0 | 20.0 | 0.00 | 0.05 | 0.00 | 95 | 1012.8 |
| 20260507094523 | 59 | 57 | 15.0 | 20.0 | 0.00 | 0.05 | 0.00 | 95 | 1012.8 |
| 20260507094024 | 59 | 63 | 14.0 | 18.0 | 0.00 | 0.05 | 0.00 | 95 | 1012.8 |
| 20260507093523 | 59 | 62 | 14.0 | 18.0 | 0.00 | 0.05 | 0.00 | 95 | 1013.0 |
| 20260507093035 | 59 | 56 | 12.0 | 18.0 | 0.00 | 0.05 | 0.00 | 95 | 1013.0 |
| 20260507092528 | 59 | 76 | 13.0 | 18.0 | 0.00 | 0.05 | 0.00 | 95 | 1012.7 |
| 20260507092024 | 59 | 65 | 14.0 | 18.0 | 0.00 | 0.05 | 0.00 | 95 | 1012.9 |
| 20260507091522 | 59 | 57 | 14.0 | 17.0 | 0.00 | 0.05 | 0.00 | 95 | 1012.9 |
| 20260507091022 | 59 | 71 | 12.0 | 18.0 | 0.00 | 0.05 | 0.00 | 95 | 1012.9 |
| 20260507090525 | 59 | 60 | 13.0 | 18.0 | 0.00 | 0.05 | 0.00 | 95 | 1012.7 |
| 20260507090029 | 59 | 57 | 13.0 | 18.0 | 0.00 | 0.05 | 0.00 | 95 | 1012.7 |
| 20260507085521 | 59 | 63 | 15.0 | 19.0 | 0.00 | 0.05 | 0.00 | 96 | 1012.7 |
| 20260507085021 | 59 | 62 | 13.0 | 19.0 | 0.00 | 0.05 | 0.00 | 96 | 1012.6 |
| 20260507084520 | 59 | 57 | 12.0 | 17.0 | 0.00 | 0.05 | 0.00 | 96 | 1012.7 |
| 20260507084027 | 59 | 51 | 13.0 | 17.0 | 0.00 | 0.05 | 0.00 | 96 | 1012.8 |
| 20260507083520 | 59 | 53 | 14.0 | 17.0 | 0.00 | 0.05 | 0.00 | 96 | 1012.9 |
| 20260507083033 | 59 | 61 | 13.0 | 17.0 | 0.00 | 0.05 | 0.00 | 96 | 1013.0 |
| 20260507082519 | 59 | 57 | 12.0 | 17.0 | 0.00 | 0.05 | 0.00 | 96 | 1013.0 |
| 20260507082019 | 59 | 68 | 12.0 | 17.0 | 0.00 | 0.05 | 0.00 | 96 | 1012.9 |
| 20260507081518 | 59 | 65 | 12.0 | 16.0 | 0.00 | 0.05 | 0.00 | 96 | 1012.9 |
| 20260507081018 | 59 | 66 | 13.0 | 15.0 | 0.00 | 0.05 | 0.00 | 97 | 1012.9 |
| 20260507080520 | 59 | 67 | 10.0 | 14.0 | 0.00 | 0.05 | 0.00 | 97 | 1013.1 |
| 20260507080018 | 59 | 38 | 11.0 | 14.0 | 0.00 | 0.05 | 0.00 | 97 | 1013.1 |
| 20260507075517 | 59 | 61 | 10.0 | 14.0 | 0.00 | 0.05 | 0.00 | 97 | 1012.9 |
| 20260507075017 | 59 | 58 | 10.0 | 15.0 | 0.00 | 0.05 | 0.00 | 97 | 1013.1 |
| 20260507074526 | 59 | 42 | 11.0 | 15.0 | 0.00 | 0.05 | 0.00 | 98 | 1013.1 |
| 20260507074016 | 59 | 46 | 11.0 | 15.0 | 0.00 | 0.05 | 0.00 | 98 | 1013.3 |
| 20260507073516 | 58 | 35 | 11.0 | 15.0 | 0.00 | 0.05 | 0.00 | 98 | 1013.1 |
| 20260507073125 | 58 | 52 | 11.0 | 14.0 | 0.00 | 0.05 | 0.00 | 98 | 1013.2 |
| 20260507072515 | 58 | 50 | 10.0 | 16.0 | 0.00 | 0.05 | 0.00 | 98 | 1013.2 |
| 20260507072014 | 58 | 40 | 10.0 | 15.0 | 0.00 | 0.05 | 0.00 | 98 | 1013.1 |
| 20260507071514 | 58 | 51 | 11.0 | 16.0 | 0.00 | 0.05 | 0.00 | 98 | 1012.9 |
| 20260507071020 | 58 | 54 | 13.0 | 17.0 | 0.00 | 0.05 | 0.00 | 98 | 1013.0 |
| 20260507070513 | 58 | 62 | 12.0 | 17.0 | 0.00 | 0.05 | 0.00 | 98 | 1013.2 |
| 20260507070014 | 58 | 40 | 11.0 | 16.0 | 0.00 | 0.05 | 0.00 | 98 | 1013.1 |
| 20260507065517 | 58 | 54 | 11.0 | 16.0 | 0.00 | 0.05 | 0.00 | 98 | 1012.8 |
| 20260507065011 | 58 | 49 | 11.0 | 15.0 | 0.00 | 0.05 | 0.00 | 98 | 1012.8 |
| 20260507064511 | 58 | 51 | 10.0 | 15.0 | 0.00 | 0.05 | 0.00 | 98 | 1013.0 |
| 20260507064012 | 58 | 44 | 10.0 | 15.0 | 0.00 | 0.05 | 0.00 | 98 | 1013.1 |
| 20260507063508 | 58 | 63 | 11.0 | 16.0 | 0.00 | 0.05 | 0.00 | 98 | 1013.0 |
| 20260507063007 | 58 | 46 | 11.0 | 16.0 | 0.00 | 0.05 | 0.00 | 98 | 1012.8 |
| 20260507062507 | 58 | 53 | 13.0 | 17.0 | 0.00 | 0.05 | 0.00 | 97 | 1012.4 |
| 20260507062007 | 58 | 57 | 13.0 | 19.0 | 0.00 | 0.05 | 0.00 | 98 | 1012.6 |
| 20260507061507 | 58 | 39 | 15.0 | 21.0 | 0.00 | 0.05 | 0.00 | 98 | 1012.7 |
| 20260507061005 | 58 | 44 | 15.0 | 21.0 | 0.00 | 0.05 | 0.00 | 98 | 1012.3 |
| 20260507060504 | 58 | 49 | 12.0 | 19.0 | 0.00 | 0.05 | 0.00 | 98 | 1012.3 |
| 20260507060007 | 58 | 66 | 14.0 | 19.0 | 0.00 | 0.05 | 0.00 | 98 | 1012.4 |
| 20260507055505 | 58 | 26 | 14.0 | 19.0 | 0.00 | 0.05 | 0.00 | 98 | 1012.4 |
| 20260507055005 | 58 | 42 | 12.0 | 19.0 | 0.00 | 0.05 | 0.00 | 98 | 1012.4 |
| 20260507054504 | 58 | 36 | 13.0 | 19.0 | 0.00 | 0.05 | 0.00 | 97 | 1012.5 |
| 20260507054002 | 59 | 38 | 14.0 | 19.0 | 0.00 | 0.05 | 0.00 | 97 | 1012.3 |
| 20260507053501 | 59 | 61 | 13.0 | 19.0 | 0.00 | 0.05 | 0.00 | 97 | 1012.4 |
| 20260507053102 | 59 | 52 | 13.0 | 19.0 | 0.00 | 0.05 | 0.00 | 97 | 1012.4 |
| 20260507052559 | 58 | 44 | 14.0 | 20.0 | 0.00 | 0.05 | 0.00 | 97 | 1012.3 |
| 20260507052058 | 58 | 57 | 14.0 | 19.0 | 0.00 | 0.05 | 0.00 | 97 | 1012.1 |
| 20260507051600 | 58 | 54 | 14.0 | 19.0 | 0.00 | 0.05 | 0.00 | 97 | 1011.9 |
| 20260507051100 | 58 | 46 | 13.0 | 18.0 | 0.00 | 0.05 | 0.00 | 97 | 1011.9 |
| 20260507050559 | 58 | 36 | 13.0 | 18.0 | 0.00 | 0.05 | 0.00 | 97 | 1011.7 |
| 20260507050055 | 58 | 59 | 14.0 | 17.0 | 0.00 | 0.05 | 0.00 | 97 | 1011.7 |
| 20260507045554 | 58 | 35 | 11.0 | 21.0 | 0.00 | 0.05 | 0.05 | 96 | 1012.0 |
| 20260507045053 | 58 | 65 | 12.0 | 21.0 | 0.00 | 0.05 | 0.05 | 96 | 1011.7 |
| 20260507044556 | 58 | 43 | 12.0 | 20.0 | 0.00 | 0.05 | 0.05 | 96 | 1011.1 |
| 20260507044052 | 58 | 65 | 14.0 | 19.0 | 0.00 | 0.05 | 0.05 | 96 | 1011.3 |
| 20260507043551 | 58 | 46 | 13.0 | 18.0 | 0.00 | 0.05 | 0.05 | 96 | 1011.5 |
| 20260507043050 | 58 | 74 | 11.0 | 18.0 | 0.00 | 0.05 | 0.05 | 96 | 1011.7 |
| 20260507042549 | 58 | 51 | 12.0 | 17.0 | 0.00 | 0.05 | 0.05 | 96 | 1011.8 |
| 20260507042048 | 59 | 61 | 12.0 | 16.0 | 0.00 | 0.05 | 0.05 | 96 | 1011.5 |
| 20260507041551 | 59 | 49 | 10.0 | 16.0 | 0.00 | 0.05 | 0.05 | 96 | 1011.9 |
| 20260507041047 | 59 | 45 | 11.0 | 18.0 | 0.00 | 0.05 | 0.05 | 96 | 1011.7 |
| 20260507040547 | 59 | 63 | 11.0 | 18.0 | 0.00 | 0.05 | 0.05 | 96 | 1011.6 |
| 20260507040057 | 59 | 53 | 13.0 | 17.0 | 0.00 | 0.05 | 0.05 | 96 | 1011.7 |
| 20260507035545 | 59 | 44 | 11.0 | 16.0 | 0.00 | 0.05 | 0.05 | 95 | 1011.7 |
| 20260507035044 | 59 | 65 | 11.0 | 16.0 | 0.00 | 0.05 | 0.05 | 95 | 1011.7 |
| 20260507034554 | 59 | 48 | 8.0 | 13.0 | 0.00 | 0.05 | 0.05 | 95 | 1011.8 |
| 20260507034043 | 59 | 53 | 8.0 | 13.0 | 0.00 | 0.05 | 0.05 | 95 | 1011.8 |
| 20260507033543 | 59 | 59 | 8.0 | 17.0 | 0.00 | 0.05 | 0.05 | 95 | 1011.8 |
| 20260507033044 | 59 | 55 | 9.0 | 17.0 | 0.00 | 0.05 | 0.05 | 95 | 1011.5 |
| 20260507032544 | 59 | 43 | 10.0 | 14.0 | 0.00 | 0.05 | 0.05 | 95 | 1011.5 |
| 20260507032040 | 59 | 55 | 10.0 | 15.0 | 0.00 | 0.05 | 0.05 | 95 | 1011.4 |
| 20260507031540 | 59 | 45 | 9.0 | 15.0 | 0.00 | 0.05 | 0.05 | 95 | 1011.2 |
| 20260507031040 | 59 | 53 | 10.0 | 13.0 | 0.00 | 0.05 | 0.05 | 95 | 1011.2 |
| 20260507030538 | 59 | 47 | 9.0 | 17.0 | 0.00 | 0.05 | 0.05 | 94 | 1011.2 |
| 20260507030039 | 59 | 55 | 10.0 | 17.0 | 0.00 | 0.05 | 0.05 | 94 | 1010.9 |
| 20260507025538 | 59 | 63 | 9.0 | 17.0 | 0.00 | 0.05 | 0.05 | 94 | 1010.9 |
| 20260507025037 | 59 | 69 | 11.0 | 19.0 | 0.00 | 0.05 | 0.05 | 94 | 1010.9 |
| 20260507024537 | 59 | 46 | 12.0 | 19.0 | 0.00 | 0.05 | 0.05 | 94 | 1011.0 |
| 20260507024040 | 60 | 42 | 13.0 | 18.0 | 0.00 | 0.05 | 0.05 | 94 | 1010.9 |
| 20260507023534 | 60 | 50 | 12.0 | 17.0 | 0.00 | 0.05 | 0.05 | 94 | 1010.7 |
| 20260507023033 | 60 | 45 | 12.0 | 21.0 | 0.00 | 0.05 | 0.05 | 94 | 1010.6 |
| 20260507022532 | 60 | 36 | 16.0 | 20.0 | 0.00 | 0.05 | 0.05 | 94 | 1010.4 |
| 20260507022032 | 60 | 46 | 14.0 | 19.0 | 0.00 | 0.05 | 0.05 | 94 | 1010.6 |
| 20260507021531 | 60 | 58 | 13.0 | 19.0 | 0.00 | 0.05 | 0.05 | 94 | 1010.5 |
| 20260507021029 | 60 | 67 | 13.0 | 17.0 | 0.00 | 0.05 | 0.05 | 94 | 1010.3 |
| 20260507020530 | 60 | 51 | 13.0 | 17.0 | 0.00 | 0.05 | 0.05 | 94 | 1010.2 |
| 20260507020028 | 60 | 58 | 13.0 | 17.0 | 0.00 | 0.05 | 0.05 | 94 | 1010.1 |
| 20260507015531 | 60 | 43 | 13.0 | 18.0 | 0.00 | 0.05 | 0.05 | 94 | 1010.1 |
| 20260507015027 | 60 | 54 | 13.0 | 18.0 | 0.00 | 0.05 | 0.05 | 94 | 1010.1 |
| 20260507014526 | 60 | 49 | 15.0 | 18.0 | 0.00 | 0.05 | 0.05 | 94 | 1010.0 |
| 20260507014025 | 60 | 49 | 12.0 | 18.0 | 0.00 | 0.05 | 0.05 | 94 | 1010.0 |
| 20260507013524 | 60 | 37 | 12.0 | 17.0 | 0.00 | 0.05 | 0.05 | 93 | 1009.9 |
| 20260507013033 | 60 | 39 | 13.0 | 18.0 | 0.00 | 0.05 | 0.05 | 93 | 1009.7 |
| 20260507012526 | 60 | 38 | 14.0 | 18.0 | 0.00 | 0.05 | 0.05 | 93 | 1009.8 |
| 20260507012022 | 61 | 41 | 15.0 | 18.0 | 0.00 | 0.05 | 0.05 | 93 | 1009.7 |
| 20260507011534 | 61 | 44 | 13.0 | 18.0 | 0.00 | 0.05 | 0.05 | 93 | 1009.6 |
| 20260507011021 | 61 | 36 | 14.0 | 19.0 | 0.00 | 0.05 | 0.05 | 93 | 1009.6 |
| 20260507010520 | 61 | 47 | 12.0 | 19.0 | 0.00 | 0.05 | 0.05 | 93 | 1009.6 |
| 20260507010019 | 61 | 44 | 13.0 | 18.0 | 0.00 | 0.05 | 0.05 | 92 | 1009.3 |
| 20260507005517 | 61 | 48 | 13.0 | 18.0 | 0.00 | 0.05 | 0.05 | 92 | 1009.3 |
| 20260507005017 | 61 | 28 | 13.0 | 18.0 | 0.00 | 0.05 | 0.05 | 92 | 1009.2 |
| 20260507004518 | 61 | 46 | 13.0 | 17.0 | 0.00 | 0.05 | 0.05 | 92 | 1009.1 |
| 20260507004015 | 61 | 40 | 14.0 | 17.0 | 0.00 | 0.05 | 0.05 | 92 | 1009.1 |
| 20260507003514 | 62 | 33 | 10.0 | 16.0 | 0.00 | 0.05 | 0.05 | 92 | 1009.2 |
| 20260507003018 | 62 | 23 | 11.0 | 18.0 | 0.00 | 0.05 | 0.05 | 92 | 1009.2 |
| 20260507002511 | 62 | 38 | 12.0 | 18.0 | 0.00 | 0.05 | 0.05 | 92 | 1009.0 |
| 20260507002011 | 62 | 32 | 12.0 | 15.0 | 0.00 | 0.05 | 0.05 | 91 | 1008.9 |
| 20260507001510 | 62 | 46 | 10.0 | 16.0 | 0.00 | 0.05 | 0.05 | 91 | 1008.8 |
| 20260507001010 | 62 | 38 | 12.0 | 16.0 | 0.00 | 0.05 | 0.05 | 91 | 1008.6 |
| 20260507000511 | 62 | 50 | 11.0 | 14.0 | 0.00 | 0.05 | 0.05 | 91 | 1008.7 |
| 20260507000008 | 63 | 51 | 10.0 | 14.0 | 0.00 | 0.05 | 0.05 | 91 | 1008.8 |
| 20260506235508 | 63 | 46 | 10.0 | 16.0 | 0.00 | 0.05 | 0.05 | 91 | 1008.6 |
| 20260506235007 | 63 | 44 | 12.0 | 16.0 | 0.00 | 0.05 | 0.05 | 90 | 1008.5 |
| 20260506234510 | 63 | 24 | 12.0 | 16.0 | 0.00 | 0.05 | 0.05 | 90 | 1008.6 |
| 20260506234006 | 63 | 42 | 8.0 | 17.0 | 0.00 | 0.05 | 0.05 | 90 | 1008.6 |
| 20260506233503 | 64 | 40 | 13.0 | 19.0 | 0.00 | 0.05 | 0.05 | 89 | 1008.4 |
| 20260506233003 | 64 | 41 | 12.0 | 19.0 | 0.00 | 0.05 | 0.05 | 89 | 1008.5 |
| 20260506232502 | 64 | 16 | 14.0 | 19.0 | 0.00 | 0.05 | 0.05 | 89 | 1008.5 |
| 20260506232000 | 65 | 22 | 12.0 | 17.0 | 0.00 | 0.05 | 0.05 | 89 | 1008.5 |
| 20260506231600 | 65 | 10 | 13.0 | 18.0 | 0.00 | 0.05 | 0.05 | 88 | 1008.5 |
| 20260506231034 | 66 | 51 | 11.0 | 18.0 | 0.00 | 0.05 | 0.05 | 88 | 1008.3 |
| 20260506230533 | 66 | 30 | 12.0 | 17.0 | 0.00 | 0.05 | 0.05 | 88 | 1008.0 |
| 20260506230033 | 66 | 18 | 12.0 | 19.0 | 0.00 | 0.05 | 0.05 | 88 | 1008.0 |
| 20260506225533 | 67 | 19 | 12.0 | 18.0 | 0.00 | 0.05 | 0.05 | 87 | 1008.0 |
| 20260506225033 | 67 | 12 | 11.0 | 17.0 | 0.00 | 0.05 | 0.05 | 87 | 1008.1 |
| 20260506224533 | 68 | 36 | 11.0 | 16.0 | 0.00 | 0.05 | 0.05 | 87 | 1007.9 |
| 20260506224032 | 68 | 72 | 11.0 | 16.0 | 0.00 | 0.05 | 0.05 | 86 | 1007.7 |
| 20260506223531 | 69 | 25 | 12.0 | 16.0 | 0.00 | 0.05 | 0.05 | 85 | 1007.7 |
| 20260506223031 | 69 | 53 | 10.0 | 16.0 | 0.00 | 0.05 | 0.05 | 85 | 1007.9 |
| 20260506222531 | 70 | 54 | 11.0 | 16.0 | 0.00 | 0.05 | 0.05 | 85 | 1007.5 |
| 20260506222032 | 71 | 52 | 10.0 | 15.0 | 0.00 | 0.05 | 0.05 | 85 | 1007.7 |
| 20260506221530 | 71 | 19 | 9.0 | 15.0 | 0.00 | 0.05 | 0.05 | 86 | 1007.5 |
| 20260506221030 | 71 | 18 | 10.0 | 14.0 | 0.00 | 0.05 | 0.05 | 85 | 1007.6 |
| 20260506220530 | 71 | 42 | 10.0 | 14.0 | 0.00 | 0.05 | 0.05 | 85 | 1007.5 |
| 20260506220129 | 71 | 57 | 9.0 | 15.0 | 0.00 | 0.05 | 0.05 | 85 | 1007.5 |
| 20260506215529 | 72 | 36 | 10.0 | 15.0 | 0.00 | 0.05 | 0.05 | 85 | 1007.5 |
| 20260506215029 | 72 | 30 | 8.0 | 14.0 | 0.00 | 0.05 | 0.05 | 85 | 1007.6 |
| 20260506214529 | 73 | 22 | 11.0 | 14.0 | 0.00 | 0.05 | 0.05 | 84 | 1007.7 |
| 20260506214028 | 73 | 19 | 11.0 | 15.0 | 0.00 | 0.05 | 0.05 | 85 | 1007.8 |
| 20260506213530 | 73 | 9 | 10.0 | 15.0 | 0.00 | 0.05 | 0.05 | 85 | 1007.6 |
| 20260506213029 | 73 | 34 | 9.0 | 14.0 | 0.00 | 0.05 | 0.05 | 86 | 1007.6 |
| 20260506212532 | 73 | 34 | 10.0 | 14.0 | 0.00 | 0.05 | 0.05 | 86 | 1007.6 |
| 20260506212029 | 73 | 33 | 8.0 | 15.0 | 0.00 | 0.05 | 0.05 | 86 | 1007.6 |
| 20260506211529 | 73 | 36 | 11.0 | 15.0 | 0.00 | 0.05 | 0.05 | 85 | 1007.5 |
| 20260506211029 | 74 | 34 | 10.0 | 14.0 | 0.00 | 0.05 | 0.05 | 86 | 1007.4 |
| 20260506210531 | 74 | 59 | 9.0 | 13.0 | 0.00 | 0.05 | 0.05 | 87 | 1007.6 |
| 20260506210027 | 74 | 24 | 9.0 | 13.0 | 0.00 | 0.05 | 0.05 | 85 | 1007.6 |
| 20260506205527 | 75 | 18 | 6.0 | 11.0 | 0.00 | 0.05 | 0.05 | 87 | 1007.7 |
| 20260506205028 | 75 | 63 | 6.0 | 11.0 | 0.00 | 0.05 | 0.05 | 87 | 1007.8 |
| 20260506204528 | 75 | 72 | 6.0 | 12.0 | 0.00 | 0.05 | 0.05 | 86 | 1007.9 |
| 20260506204029 | 76 | 59 | 8.0 | 12.0 | 0.00 | 0.05 | 0.05 | 85 | 1007.8 |
| 20260506203526 | 76 | 63 | 7.0 | 12.0 | 0.00 | 0.05 | 0.05 | 86 | 1007.7 |
| 20260506203033 | 76 | 50 | 6.0 | 12.0 | 0.00 | 0.05 | 0.05 | 87 | 1007.8 |
| 20260506202527 | 76 | 90 | 7.0 | 12.0 | 0.00 | 0.05 | 0.05 | 87 | 1007.8 |
| 20260506202025 | 76 | 67 | 7.0 | 12.0 | 0.00 | 0.05 | 0.05 | 86 | 1007.9 |
| 20260506201525 | 76 | 67 | 8.0 | 12.0 | 0.00 | 0.05 | 0.05 | 86 | 1008.1 |
| 20260506201024 | 76 | 71 | 8.0 | 11.0 | 0.00 | 0.05 | 0.05 | 86 | 1008.1 |
| 20260506200524 | 75 | 34 | 6.0 | 10.0 | 0.00 | 0.05 | 0.05 | 87 | 1008.2 |
| 20260506200026 | 75 | 75 | 5.0 | 10.0 | 0.00 | 0.05 | 0.05 | 87 | 1008.2 |
| 20260506195524 | 75 | 66 | 3.0 | 10.0 | 0.00 | 0.05 | 0.05 | 87 | 1008.2 |
| 20260506195024 | 76 | 23 | 5.0 | 9.0 | 0.00 | 0.05 | 0.05 | 86 | 1008.3 |
| 20260506194523 | 76 | 69 | 4.0 | 9.0 | 0.00 | 0.05 | 0.05 | 89 | 1008.2 |
| 20260506194021 | 75 | 80 | 5.0 | 9.0 | 0.00 | 0.05 | 0.05 | 89 | 1008.2 |
| 20260506193520 | 75 | 79 | 3.0 | 9.0 | 0.00 | 0.05 | 0.05 | 91 | 1008.3 |
| 20260506193019 | 74 | 28 | 4.0 | 10.0 | 0.00 | 0.05 | 0.05 | 90 | 1008.5 |
| 20260506192519 | 74 | 69 | 6.0 | 10.0 | 0.00 | 0.05 | 0.05 | 90 | 1008.5 |
| 20260506192017 | 74 | 67 | 5.0 | 10.0 | 0.00 | 0.05 | 0.05 | 92 | 1008.4 |
| 20260506191518 | 73 | 24 | 4.0 | 7.0 | 0.00 | 0.05 | 0.05 | 91 | 1008.6 |
| 20260506191018 | 73 | 30 | 4.0 | 7.0 | 0.00 | 0.05 | 0.05 | 92 | 1008.6 |
| 20260506190515 | 73 | 33 | 4.0 | 6.0 | 0.00 | 0.05 | 0.05 | 92 | 1008.6 |
| 20260506190021 | 73 | 49 | 2.0 | 6.0 | 0.00 | 0.05 | 0.05 | 92 | 1008.7 |
| 20260506185514 | 73 | 76 | 3.0 | 6.0 | 0.00 | 0.05 | 0.05 | 92 | 1008.8 |
| 20260506185014 | 73 | 65 | 4.0 | 6.0 | 0.00 | 0.05 | 0.05 | 92 | 1008.8 |
| 20260506184514 | 73 | 53 | 3.0 | 6.0 | 0.00 | 0.05 | 0.05 | 93 | 1008.8 |
| 20260506184013 | 73 | 70 | 4.0 | 9.0 | 0.00 | 0.05 | 0.05 | 92 | 1008.9 |
| 20260506183512 | 73 | 67 | 6.0 | 12.0 | 0.00 | 0.05 | 0.05 | 92 | 1009.0 |
| 20260506183014 | 73 | 78 | 4.0 | 12.0 | 0.00 | 0.05 | 0.05 | 94 | 1008.9 |
| 20260506182512 | 73 | 68 | 8.0 | 11.0 | 0.00 | 0.05 | 0.05 | 95 | 1008.7 |
| 20260506182019 | 72 | 54 | 7.0 | 11.0 | 0.00 | 0.05 | 0.05 | 97 | 1008.8 |
| 20260506181512 | 71 | 74 | 6.0 | 12.0 | 0.00 | 0.05 | 0.05 | 98 | 1008.8 |
| 20260506181012 | 71 | 28 | 8.0 | 11.0 | 0.00 | 0.05 | 0.05 | 99 | 1008.9 |
| 20260506180512 | 70 | 56 | 7.0 | 11.0 | 0.00 | 0.05 | 0.05 | 99 | 1009.0 |
| 20260506180012 | 70 | 41 | 6.0 | 12.0 | 0.00 | 0.05 | 0.05 | 99 | 1009.0 |
| 20260506175512 | 69 | 63 | 7.0 | 11.0 | 0.00 | 0.05 | 0.05 | 99 | 1009.1 |
| 20260506175011 | 69 | 55 | 7.0 | 9.0 | 0.00 | 0.05 | 0.05 | 99 | 1009.1 |
| 20260506174515 | 68 | 350 | 3.0 | 9.0 | 0.00 | 0.05 | 0.05 | 99 | 1009.3 |
| 20260506174013 | 68 | 5 | 4.0 | 10.0 | 0.00 | 0.05 | 0.05 | 99 | 1009.2 |
| 20260506173511 | 68 | 39 | 8.0 | 10.0 | 0.00 | 0.05 | 0.05 | 99 | 1009.2 |
| 20260506173009 | 68 | 49 | 5.0 | 11.0 | 0.00 | 0.05 | 0.05 | 99 | 1009.1 |
| 20260506172511 | 68 | 49 | 8.0 | 12.0 | 0.00 | 0.05 | 0.05 | 100 | 1009.2 |
| 20260506172009 | 67 | 67 | 9.0 | 12.0 | 0.00 | 0.05 | 0.05 | 99 | 1009.1 |
| 20260506171514 | 67 | 34 | 7.0 | 13.0 | 0.00 | 0.05 | 0.05 | 99 | 1009.1 |
| 20260506171009 | 68 | 55 | 7.0 | 13.0 | 0.00 | 0.05 | 0.05 | 100 | 1009.1 |
| 20260506170511 | 68 | 48 | 9.0 | 13.0 | 0.00 | 0.05 | 0.05 | 100 | 1009.0 |
| 20260506170009 | 67 | 59 | 7.0 | 13.0 | 0.00 | 0.05 | 0.05 | 100 | 1009.0 |